CYQD

The Pas Airport

The Pas, Manitoba, Canada
METAR CYQD 222100Z 24017KT 15SM BKN009 OVC010 08/01 A2968 RMK SC6SC2 BLN CIG SLP062
Observed Flight Rules
Apr-22 @ 21:00 UTC (58 minutes ago) Instrument Flight Rules
Wind Visibility Clouds
240° at 17 knots 15 miles
  • Broken at 900' AGL
  • Overcast at 1,000' AGL
Temperatures Readings
Current 8°C / 46°F
Dewpoint 1°C / 34°F
Humidity 62%
Altimeter 29.68" Hg
Pressure 1006.2 hPa
Elevation 271
METAR CYQD 222100Z 24017KT 15SM BKN009 OVC010 08/01 A2968 RMK SC6SC2 BLN CIG SLP062
Observed Flight Rules
Apr-22 @ 21:00 UTC
(58 minutes ago)
IFR
Wind Visibility
240° at 17 knots 15 miles
Clouds
  • Broken at 900' AGL
  • Overcast at 1,000' AGL
Temperature Dewpoint
8°C / 46°F 1°C / 34°F
Humidity Altimeter Pressure
62% 29.68" Hg 1006.2 hPa